sensor_id;sensor_type;location;lat;lon;timestamp;P1;durP1;ratioP1;P2;durP2;ratioP2
1382;SDS011;685;47.196;11.880;2023-09-19T00:01:40;2.67;;;0.50;;
1382;SDS011;685;47.196;11.880;2023-09-19T00:04:09;1.80;;;0.87;;
1382;SDS011;685;47.196;11.880;2023-09-19T00:06:37;1.50;;;0.50;;
1382;SDS011;685;47.196;11.880;2023-09-19T00:09:05;1.80;;;0.50;;
1382;SDS011;685;47.196;11.880;2023-09-19T00:11:35;1.60;;;0.60;;
1382;SDS011;685;47.196;11.880;2023-09-19T00:14:03;1.60;;;0.50;;
1382;SDS011;685;47.196;11.880;2023-09-19T00:16:33;1.40;;;0.50;;
1382;SDS011;685;47.196;11.880;2023-09-19T00:19:02;2.10;;;0.90;;
1382;SDS011;685;47.196;11.880;2023-09-19T00:21:34;1.90;;;0.50;;
1382;SDS011;685;47.196;11.880;2023-09-19T00:24:02;2.17;;;0.67;;
1382;SDS011;685;47.196;11.880;2023-09-19T00:26:31;1.97;;;0.47;;
1382;SDS011;685;47.196;11.880;2023-09-19T00:28:59;1.60;;;0.60;;
1382;SDS011;685;47.196;11.880;2023-09-19T00:31:30;1.70;;;0.73;;
1382;SDS011;685;47.196;11.880;2023-09-19T00:33:58;1.50;;;0.53;;
1382;SDS011;685;47.196;11.880;2023-09-19T00:36:30;1.50;;;0.57;;
1382;SDS011;685;47.196;11.880;2023-09-19T00:38:58;1.60;;;0.70;;
1382;SDS011;685;47.196;11.880;2023-09-19T00:41:26;1.63;;;0.70;;
1382;SDS011;685;47.196;11.880;2023-09-19T00:43:55;1.53;;;0.53;;
1382;SDS011;685;47.196;11.880;2023-09-19T00:46:23;1.30;;;0.50;;
1382;SDS011;685;47.196;11.880;2023-09-19T00:48:50;1.80;;;0.50;;
1382;SDS011;685;47.196;11.880;2023-09-19T00:51:18;1.50;;;0.60;;
1382;SDS011;685;47.196;11.880;2023-09-19T00:53:48;2.40;;;0.70;;
1382;SDS011;685;47.196;11.880;2023-09-19T00:56:15;1.40;;;0.57;;
1382;SDS011;685;47.196;11.880;2023-09-19T00:58:43;1.57;;;0.60;;
1382;SDS011;685;47.196;11.880;2023-09-19T01:01:11;1.70;;;0.50;;
1382;SDS011;685;47.196;11.880;2023-09-19T01:03:40;1.80;;;0.60;;
1382;SDS011;685;47.196;11.880;2023-09-19T01:06:07;1.50;;;0.60;;
1382;SDS011;685;47.196;11.880;2023-09-19T01:08:35;1.50;;;0.57;;
1382;SDS011;685;47.196;11.880;2023-09-19T01:11:06;1.90;;;0.70;;
1382;SDS011;685;47.196;11.880;2023-09-19T01:13:39;1.63;;;0.50;;
1382;SDS011;685;47.196;11.880;2023-09-19T01:16:10;1.50;;;0.60;;
1382;SDS011;685;47.196;11.880;2023-09-19T01:18:41;5.00;;;0.80;;
1382;SDS011;685;47.196;11.880;2023-09-19T01:21:11;1.43;;;0.53;;
1382;SDS011;685;47.196;11.880;2023-09-19T01:23:51;4.23;;;0.70;;
1382;SDS011;685;47.196;11.880;2023-09-19T01:26:37;3.20;;;0.83;;
1382;SDS011;685;47.196;11.880;2023-09-19T01:29:17;1.70;;;0.80;;
1382;SDS011;685;47.196;11.880;2023-09-19T01:31:56;2.80;;;0.67;;
1382;SDS011;685;47.196;11.880;2023-09-19T01:34:26;3.10;;;0.73;;
1382;SDS011;685;47.196;11.880;2023-09-19T01:36:53;1.60;;;0.53;;
1382;SDS011;685;47.196;11.880;2023-09-19T01:39:21;2.03;;;0.73;;
1382;SDS011;685;47.196;11.880;2023-09-19T01:41:52;1.70;;;0.80;;
1382;SDS011;685;47.196;11.880;2023-09-19T01:44:23;1.50;;;0.60;;
1382;SDS011;685;47.196;11.880;2023-09-19T01:46:51;3.00;;;0.70;;
1382;SDS011;685;47.196;11.880;2023-09-19T01:49:27;1.43;;;0.50;;
1382;SDS011;685;47.196;11.880;2023-09-19T01:52:00;1.43;;;0.43;;
1382;SDS011;685;47.196;11.880;2023-09-19T01:54:31;2.80;;;0.70;;
1382;SDS011;685;47.196;11.880;2023-09-19T01:57:03;1.80;;;0.70;;
1382;SDS011;685;47.196;11.880;2023-09-19T01:59:35;2.33;;;0.80;;
1382;SDS011;685;47.196;11.880;2023-09-19T02:02:05;2.33;;;0.80;;
1382;SDS011;685;47.196;11.880;2023-09-19T02:04:35;1.50;;;0.50;;
1382;SDS011;685;47.196;11.880;2023-09-19T02:07:02;1.40;;;0.63;;
1382;SDS011;685;47.196;11.880;2023-09-19T02:09:33;7.13;;;0.80;;
1382;SDS011;685;47.196;11.880;2023-09-19T02:12:00;1.70;;;0.60;;
1382;SDS011;685;47.196;11.880;2023-09-19T02:14:29;1.60;;;0.60;;
1382;SDS011;685;47.196;11.880;2023-09-19T02:16:57;1.80;;;0.70;;
1382;SDS011;685;47.196;11.880;2023-09-19T02:19:25;2.30;;;0.50;;
1382;SDS011;685;47.196;11.880;2023-09-19T02:21:54;1.80;;;0.90;;
1382;SDS011;685;47.196;11.880;2023-09-19T02:24:21;3.50;;;0.60;;
1382;SDS011;685;47.196;11.880;2023-09-19T02:26:52;1.90;;;0.50;;
1382;SDS011;685;47.196;11.880;2023-09-19T02:29:20;2.23;;;0.87;;
1382;SDS011;685;47.196;11.880;2023-09-19T02:31:48;1.70;;;0.80;;
1382;SDS011;685;47.196;11.880;2023-09-19T02:34:15;1.90;;;0.80;;
1382;SDS011;685;47.196;11.880;2023-09-19T02:36:43;2.90;;;0.73;;
1382;SDS011;685;47.196;11.880;2023-09-19T02:39:12;1.50;;;0.53;;
1382;SDS011;685;47.196;11.880;2023-09-19T02:41:39;1.77;;;0.67;;
1382;SDS011;685;47.196;11.880;2023-09-19T02:44:07;3.40;;;0.60;;
1382;SDS011;685;47.196;11.880;2023-09-19T02:46:34;3.60;;;0.83;;
1382;SDS011;685;47.196;11.880;2023-09-19T02:49:02;1.90;;;1.10;;
1382;SDS011;685;47.196;11.880;2023-09-19T02:51:30;1.97;;;0.70;;
1382;SDS011;685;47.196;11.880;2023-09-19T02:53:58;1.70;;;0.60;;
1382;SDS011;685;47.196;11.880;2023-09-19T02:56:27;1.93;;;0.83;;
1382;SDS011;685;47.196;11.880;2023-09-19T02:58:55;2.17;;;0.80;;
1382;SDS011;685;47.196;11.880;2023-09-19T03:01:23;2.57;;;0.73;;
1382;SDS011;685;47.196;11.880;2023-09-19T03:03:50;3.10;;;1.57;;
1382;SDS011;685;47.196;11.880;2023-09-19T03:06:18;2.10;;;1.10;;
1382;SDS011;685;47.196;11.880;2023-09-19T03:08:46;2.43;;;1.40;;
1382;SDS011;685;47.196;11.880;2023-09-19T03:11:14;2.40;;;1.30;;
1382;SDS011;685;47.196;11.880;2023-09-19T03:13:45;2.80;;;1.80;;
1382;SDS011;685;47.196;11.880;2023-09-19T03:16:12;2.73;;;1.50;;
1382;SDS011;685;47.196;11.880;2023-09-19T03:18:41;3.20;;;1.60;;
1382;SDS011;685;47.196;11.880;2023-09-19T03:21:08;2.10;;;1.20;;
1382;SDS011;685;47.196;11.880;2023-09-19T03:23:35;2.47;;;1.40;;
1382;SDS011;685;47.196;11.880;2023-09-19T03:26:04;2.00;;;0.90;;
1382;SDS011;685;47.196;11.880;2023-09-19T03:28:32;3.00;;;1.03;;
1382;SDS011;685;47.196;11.880;2023-09-19T03:31:01;2.70;;;0.97;;
1382;SDS011;685;47.196;11.880;2023-09-19T03:33:29;2.13;;;0.97;;
1382;SDS011;685;47.196;11.880;2023-09-19T03:35:58;1.70;;;0.63;;
1382;SDS011;685;47.196;11.880;2023-09-19T03:38:26;1.53;;;0.60;;
1382;SDS011;685;47.196;11.880;2023-09-19T03:40:54;1.90;;;0.53;;
1382;SDS011;685;47.196;11.880;2023-09-19T03:43:21;1.97;;;0.77;;
1382;SDS011;685;47.196;11.880;2023-09-19T03:45:48;1.77;;;0.70;;
1382;SDS011;685;47.196;11.880;2023-09-19T03:48:17;2.80;;;0.53;;
1382;SDS011;685;47.196;11.880;2023-09-19T03:50:44;1.53;;;0.53;;
1382;SDS011;685;47.196;11.880;2023-09-19T03:53:12;1.50;;;0.60;;
1382;SDS011;685;47.196;11.880;2023-09-19T03:55:39;3.10;;;0.50;;
1382;SDS011;685;47.196;11.880;2023-09-19T03:58:06;1.97;;;0.93;;
1382;SDS011;685;47.196;11.880;2023-09-19T04:00:33;1.70;;;0.70;;
1382;SDS011;685;47.196;11.880;2023-09-19T04:03:01;1.60;;;0.63;;
1382;SDS011;685;47.196;11.880;2023-09-19T04:05:32;2.77;;;0.97;;
1382;SDS011;685;47.196;11.880;2023-09-19T04:07:59;1.70;;;1.00;;
1382;SDS011;685;47.196;11.880;2023-09-19T04:10:27;1.60;;;0.70;;
1382;SDS011;685;47.196;11.880;2023-09-19T04:12:55;1.50;;;0.60;;
1382;SDS011;685;47.196;11.880;2023-09-19T04:15:22;2.67;;;1.00;;
1382;SDS011;685;47.196;11.880;2023-09-19T04:17:49;1.77;;;0.60;;
1382;SDS011;685;47.196;11.880;2023-09-19T04:20:17;1.47;;;0.63;;
1382;SDS011;685;47.196;11.880;2023-09-19T04:22:46;1.70;;;0.60;;
1382;SDS011;685;47.196;11.880;2023-09-19T04:25:13;2.10;;;1.10;;
1382;SDS011;685;47.196;11.880;2023-09-19T04:27:40;1.70;;;0.90;;
1382;SDS011;685;47.196;11.880;2023-09-19T04:30:09;2.10;;;1.40;;
1382;SDS011;685;47.196;11.880;2023-09-19T04:32:37;2.20;;;1.20;;
1382;SDS011;685;47.196;11.880;2023-09-19T04:35:06;1.60;;;0.90;;
1382;SDS011;685;47.196;11.880;2023-09-19T04:37:35;1.80;;;0.90;;
1382;SDS011;685;47.196;11.880;2023-09-19T04:40:04;2.23;;;0.60;;
1382;SDS011;685;47.196;11.880;2023-09-19T04:42:32;1.60;;;0.67;;
1382;SDS011;685;47.196;11.880;2023-09-19T04:45:00;1.70;;;0.80;;
1382;SDS011;685;47.196;11.880;2023-09-19T04:47:30;3.37;;;0.67;;
1382;SDS011;685;47.196;11.880;2023-09-19T04:49:57;1.70;;;1.00;;
1382;SDS011;685;47.196;11.880;2023-09-19T04:52:24;2.60;;;1.30;;
1382;SDS011;685;47.196;11.880;2023-09-19T04:54:51;2.77;;;0.80;;
1382;SDS011;685;47.196;11.880;2023-09-19T04:57:20;5.30;;;1.43;;
1382;SDS011;685;47.196;11.880;2023-09-19T04:59:48;2.33;;;0.80;;
1382;SDS011;685;47.196;11.880;2023-09-19T05:02:15;2.23;;;0.90;;
1382;SDS011;685;47.196;11.880;2023-09-19T05:04:42;1.80;;;0.90;;
1382;SDS011;685;47.196;11.880;2023-09-19T05:07:09;1.50;;;0.60;;
1382;SDS011;685;47.196;11.880;2023-09-19T05:09:37;1.60;;;0.80;;
1382;SDS011;685;47.196;11.880;2023-09-19T05:12:04;1.80;;;0.90;;
1382;SDS011;685;47.196;11.880;2023-09-19T05:14:33;1.77;;;0.63;;
1382;SDS011;685;47.196;11.880;2023-09-19T05:17:00;4.07;;;0.80;;
1382;SDS011;685;47.196;11.880;2023-09-19T05:19:29;1.63;;;0.60;;
1382;SDS011;685;47.196;11.880;2023-09-19T05:21:56;1.80;;;0.83;;
1382;SDS011;685;47.196;11.880;2023-09-19T05:24:23;2.03;;;1.00;;
1382;SDS011;685;47.196;11.880;2023-09-19T05:26:51;1.50;;;0.60;;
1382;SDS011;685;47.196;11.880;2023-09-19T05:29:20;4.80;;;0.77;;
1382;SDS011;685;47.196;11.880;2023-09-19T05:31:49;1.60;;;0.70;;
1382;SDS011;685;47.196;11.880;2023-09-19T05:34:16;1.63;;;0.80;;
1382;SDS011;685;47.196;11.880;2023-09-19T05:36:43;1.50;;;0.67;;
1382;SDS011;685;47.196;11.880;2023-09-19T05:39:11;1.97;;;0.73;;
1382;SDS011;685;47.196;11.880;2023-09-19T05:41:38;3.50;;;1.80;;
1382;SDS011;685;47.196;11.880;2023-09-19T05:44:07;2.70;;;1.47;;
1382;SDS011;685;47.196;11.880;2023-09-19T05:46:34;2.83;;;1.70;;
1382;SDS011;685;47.196;11.880;2023-09-19T05:49:03;3.27;;;1.33;;
1382;SDS011;685;47.196;11.880;2023-09-19T05:51:30;7.33;;;2.20;;
1382;SDS011;685;47.196;11.880;2023-09-19T05:53:57;3.30;;;1.50;;
1382;SDS011;685;47.196;11.880;2023-09-19T05:56:24;2.20;;;1.10;;
1382;SDS011;685;47.196;11.880;2023-09-19T05:58:52;3.07;;;1.30;;
1382;SDS011;685;47.196;11.880;2023-09-19T06:01:19;2.90;;;1.37;;
1382;SDS011;685;47.196;11.880;2023-09-19T06:03:47;5.10;;;1.53;;
1382;SDS011;685;47.196;11.880;2023-09-19T06:06:16;2.00;;;0.93;;
1382;SDS011;685;47.196;11.880;2023-09-19T06:08:44;2.60;;;1.27;;
1382;SDS011;685;47.196;11.880;2023-09-19T06:11:11;2.20;;;1.20;;
1382;SDS011;685;47.196;11.880;2023-09-19T06:13:38;2.10;;;1.10;;
1382;SDS011;685;47.196;11.880;2023-09-19T06:16:05;4.80;;;1.00;;
1382;SDS011;685;47.196;11.880;2023-09-19T06:18:34;1.80;;;0.70;;
1382;SDS011;685;47.196;11.880;2023-09-19T06:21:01;1.87;;;0.70;;
1382;SDS011;685;47.196;11.880;2023-09-19T06:23:33;2.40;;;1.50;;
1382;SDS011;685;47.196;11.880;2023-09-19T06:26:01;5.60;;;1.70;;
1382;SDS011;685;47.196;11.880;2023-09-19T06:28:31;6.87;;;2.10;;
1382;SDS011;685;47.196;11.880;2023-09-19T06:30:58;3.77;;;1.33;;
1382;SDS011;685;47.196;11.880;2023-09-19T06:33:26;3.80;;;1.57;;
1382;SDS011;685;47.196;11.880;2023-09-19T06:35:53;5.03;;;1.80;;
1382;SDS011;685;47.196;11.880;2023-09-19T06:38:24;3.00;;;1.80;;
1382;SDS011;685;47.196;11.880;2023-09-19T06:40:53;2.07;;;1.20;;
1382;SDS011;685;47.196;11.880;2023-09-19T06:43:21;2.50;;;1.20;;
1382;SDS011;685;47.196;11.880;2023-09-19T06:45:49;2.53;;;1.20;;
1382;SDS011;685;47.196;11.880;2023-09-19T06:48:16;3.67;;;1.27;;
1382;SDS011;685;47.196;11.880;2023-09-19T06:50:44;6.10;;;1.50;;
1382;SDS011;685;47.196;11.880;2023-09-19T06:53:13;2.50;;;1.30;;
1382;SDS011;685;47.196;11.880;2023-09-19T06:55:41;2.80;;;1.10;;
1382;SDS011;685;47.196;11.880;2023-09-19T06:58:10;3.20;;;1.20;;
1382;SDS011;685;47.196;11.880;2023-09-19T07:00:37;3.23;;;1.60;;
1382;SDS011;685;47.196;11.880;2023-09-19T07:03:06;2.43;;;0.97;;
1382;SDS011;685;47.196;11.880;2023-09-19T07:05:36;1.87;;;1.20;;
1382;SDS011;685;47.196;11.880;2023-09-19T07:08:04;2.23;;;1.30;;
1382;SDS011;685;47.196;11.880;2023-09-19T07:10:32;5.30;;;2.00;;
1382;SDS011;685;47.196;11.880;2023-09-19T07:13:00;2.53;;;1.27;;
1382;SDS011;685;47.196;11.880;2023-09-19T07:15:29;2.60;;;1.17;;
1382;SDS011;685;47.196;11.880;2023-09-19T07:17:58;2.20;;;0.80;;
1382;SDS011;685;47.196;11.880;2023-09-19T07:20:26;3.23;;;1.33;;
1382;SDS011;685;47.196;11.880;2023-09-19T07:22:56;3.37;;;1.30;;
1382;SDS011;685;47.196;11.880;2023-09-19T07:25:24;2.07;;;1.03;;
1382;SDS011;685;47.196;11.880;2023-09-19T07:27:52;4.27;;;1.30;;
1382;SDS011;685;47.196;11.880;2023-09-19T07:30:19;2.80;;;0.90;;
1382;SDS011;685;47.196;11.880;2023-09-19T07:32:48;4.93;;;1.20;;
1382;SDS011;685;47.196;11.880;2023-09-19T07:35:15;2.70;;;0.97;;
1382;SDS011;685;47.196;11.880;2023-09-19T07:37:45;2.20;;;1.37;;
1382;SDS011;685;47.196;11.880;2023-09-19T07:40:14;2.13;;;1.20;;
1382;SDS011;685;47.196;11.880;2023-09-19T07:42:41;2.37;;;1.33;;
1382;SDS011;685;47.196;11.880;2023-09-19T07:45:10;3.20;;;1.13;;
1382;SDS011;685;47.196;11.880;2023-09-19T07:47:39;2.87;;;1.40;;
1382;SDS011;685;47.196;11.880;2023-09-19T07:50:09;1.73;;;0.77;;
1382;SDS011;685;47.196;11.880;2023-09-19T07:52:36;2.23;;;0.90;;
1382;SDS011;685;47.196;11.880;2023-09-19T07:55:05;3.30;;;0.90;;
1382;SDS011;685;47.196;11.880;2023-09-19T07:57:34;1.80;;;0.80;;
1382;SDS011;685;47.196;11.880;2023-09-19T08:00:02;2.83;;;1.50;;
1382;SDS011;685;47.196;11.880;2023-09-19T08:02:33;3.40;;;1.43;;
1382;SDS011;685;47.196;11.880;2023-09-19T08:05:03;1.77;;;0.73;;
1382;SDS011;685;47.196;11.880;2023-09-19T08:07:32;3.97;;;1.20;;
1382;SDS011;685;47.196;11.880;2023-09-19T08:10:01;2.67;;;1.20;;
1382;SDS011;685;47.196;11.880;2023-09-19T08:12:28;3.13;;;1.70;;
1382;SDS011;685;47.196;11.880;2023-09-19T08:14:57;3.53;;;2.23;;
1382;SDS011;685;47.196;11.880;2023-09-19T08:17:25;4.20;;;2.07;;
1382;SDS011;685;47.196;11.880;2023-09-19T08:19:52;2.90;;;1.80;;
1382;SDS011;685;47.196;11.880;2023-09-19T08:22:19;3.20;;;1.43;;
1382;SDS011;685;47.196;11.880;2023-09-19T08:24:48;2.40;;;1.53;;
1382;SDS011;685;47.196;11.880;2023-09-19T08:27:15;2.47;;;1.20;;
1382;SDS011;685;47.196;11.880;2023-09-19T08:29:43;2.10;;;0.87;;
1382;SDS011;685;47.196;11.880;2023-09-19T08:32:11;2.20;;;1.20;;
1382;SDS011;685;47.196;11.880;2023-09-19T08:34:39;2.70;;;1.37;;
1382;SDS011;685;47.196;11.880;2023-09-19T08:37:07;2.67;;;1.40;;
1382;SDS011;685;47.196;11.880;2023-09-19T08:39:35;2.83;;;1.20;;
1382;SDS011;685;47.196;11.880;2023-09-19T08:42:04;2.40;;;1.10;;
1382;SDS011;685;47.196;11.880;2023-09-19T08:44:35;2.80;;;1.30;;
1382;SDS011;685;47.196;11.880;2023-09-19T08:47:07;3.10;;;1.37;;
1382;SDS011;685;47.196;11.880;2023-09-19T08:49:37;1.70;;;0.90;;
1382;SDS011;685;47.196;11.880;2023-09-19T08:52:10;1.70;;;0.90;;
1382;SDS011;685;47.196;11.880;2023-09-19T08:54:43;2.77;;;1.33;;
1382;SDS011;685;47.196;11.880;2023-09-19T08:57:13;2.13;;;1.00;;
1382;SDS011;685;47.196;11.880;2023-09-19T08:59:46;2.03;;;1.00;;
1382;SDS011;685;47.196;11.880;2023-09-19T09:02:16;2.50;;;0.97;;
1382;SDS011;685;47.196;11.880;2023-09-19T09:04:44;2.80;;;1.17;;
1382;SDS011;685;47.196;11.880;2023-09-19T09:07:13;1.90;;;1.13;;
1382;SDS011;685;47.196;11.880;2023-09-19T09:09:41;2.07;;;1.03;;
1382;SDS011;685;47.196;11.880;2023-09-19T09:12:10;2.07;;;1.20;;
1382;SDS011;685;47.196;11.880;2023-09-19T09:14:40;2.50;;;1.00;;
1382;SDS011;685;47.196;11.880;2023-09-19T09:17:07;2.20;;;0.90;;
1382;SDS011;685;47.196;11.880;2023-09-19T09:19:34;3.83;;;0.90;;
1382;SDS011;685;47.196;11.880;2023-09-19T09:22:05;2.40;;;1.13;;
1382;SDS011;685;47.196;11.880;2023-09-19T09:24:33;1.60;;;0.70;;
1382;SDS011;685;47.196;11.880;2023-09-19T09:27:03;2.40;;;1.00;;
1382;SDS011;685;47.196;11.880;2023-09-19T09:29:44;1.90;;;0.80;;
1382;SDS011;685;47.196;11.880;2023-09-19T09:32:18;1.80;;;0.90;;
1382;SDS011;685;47.196;11.880;2023-09-19T09:34:45;3.30;;;1.13;;
1382;SDS011;685;47.196;11.880;2023-09-19T09:37:14;3.50;;;1.33;;
1382;SDS011;685;47.196;11.880;2023-09-19T09:39:54;1.77;;;0.97;;
1382;SDS011;685;47.196;11.880;2023-09-19T09:42:30;2.20;;;1.10;;
1382;SDS011;685;47.196;11.880;2023-09-19T09:45:13;2.37;;;0.90;;
1382;SDS011;685;47.196;11.880;2023-09-19T09:47:41;2.20;;;1.20;;
1382;SDS011;685;47.196;11.880;2023-09-19T09:50:23;1.70;;;0.80;;
1382;SDS011;685;47.196;11.880;2023-09-19T09:52:54;1.80;;;0.90;;
1382;SDS011;685;47.196;11.880;2023-09-19T09:55:26;3.70;;;1.30;;
1382;SDS011;685;47.196;11.880;2023-09-19T09:58:02;2.30;;;1.17;;
1382;SDS011;685;47.196;11.880;2023-09-19T10:00:53;2.10;;;1.00;;
1382;SDS011;685;47.196;11.880;2023-09-19T10:03:31;2.73;;;0.87;;
1382;SDS011;685;47.196;11.880;2023-09-19T10:05:59;2.70;;;1.03;;
1382;SDS011;685;47.196;11.880;2023-09-19T10:08:34;1.80;;;0.97;;
1382;SDS011;685;47.196;11.880;2023-09-19T10:11:13;2.53;;;0.70;;
1382;SDS011;685;47.196;11.880;2023-09-19T10:13:42;2.23;;;1.17;;
1382;SDS011;685;47.196;11.880;2023-09-19T10:16:12;2.20;;;1.00;;
1382;SDS011;685;47.196;11.880;2023-09-19T10:18:40;3.80;;;1.23;;
1382;SDS011;685;47.196;11.880;2023-09-19T10:21:09;2.57;;;1.17;;
1382;SDS011;685;47.196;11.880;2023-09-19T10:23:37;2.33;;;1.07;;
1382;SDS011;685;47.196;11.880;2023-09-19T10:26:05;3.80;;;1.30;;
1382;SDS011;685;47.196;11.880;2023-09-19T10:28:34;2.10;;;0.73;;
1382;SDS011;685;47.196;11.880;2023-09-19T10:31:02;1.70;;;0.80;;
1382;SDS011;685;47.196;11.880;2023-09-19T10:33:34;2.30;;;1.00;;
1382;SDS011;685;47.196;11.880;2023-09-19T10:36:02;2.13;;;1.20;;
1382;SDS011;685;47.196;11.880;2023-09-19T10:38:31;2.10;;;1.10;;
1382;SDS011;685;47.196;11.880;2023-09-19T10:41:00;1.90;;;1.00;;
1382;SDS011;685;47.196;11.880;2023-09-19T10:43:29;2.10;;;0.80;;
1382;SDS011;685;47.196;11.880;2023-09-19T10:46:00;3.30;;;1.00;;
1382;SDS011;685;47.196;11.880;2023-09-19T10:48:29;1.60;;;0.80;;
1382;SDS011;685;47.196;11.880;2023-09-19T10:50:58;2.27;;;1.03;;
1382;SDS011;685;47.196;11.880;2023-09-19T10:53:29;1.60;;;0.80;;
1382;SDS011;685;47.196;11.880;2023-09-19T10:55:59;1.67;;;0.70;;
1382;SDS011;685;47.196;11.880;2023-09-19T10:58:35;3.60;;;0.90;;
1382;SDS011;685;47.196;11.880;2023-09-19T11:01:05;2.33;;;1.20;;
1382;SDS011;685;47.196;11.880;2023-09-19T11:03:33;1.90;;;1.07;;
1382;SDS011;685;47.196;11.880;2023-09-19T11:06:04;2.07;;;0.77;;
1382;SDS011;685;47.196;11.880;2023-09-19T11:16:39;3.20;;;1.10;;
1382;SDS011;685;47.196;11.880;2023-09-19T11:19:08;2.00;;;0.83;;
1382;SDS011;685;47.196;11.880;2023-09-19T11:24:34;2.20;;;0.67;;
1382;SDS011;685;47.196;11.880;2023-09-19T11:27:10;1.90;;;0.70;;
1382;SDS011;685;47.196;11.880;2023-09-19T11:29:38;2.30;;;0.97;;
1382;SDS011;685;47.196;11.880;2023-09-19T11:32:06;2.17;;;1.03;;
1382;SDS011;685;47.196;11.880;2023-09-19T11:34:44;2.47;;;1.00;;
1382;SDS011;685;47.196;11.880;2023-09-19T11:40:06;1.97;;;0.83;;
1382;SDS011;685;47.196;11.880;2023-09-19T11:42:41;2.17;;;0.90;;
1382;SDS011;685;47.196;11.880;2023-09-19T11:47:53;1.87;;;0.93;;
1382;SDS011;685;47.196;11.880;2023-09-19T11:50:21;2.17;;;0.93;;
1382;SDS011;685;47.196;11.880;2023-09-19T11:52:51;1.80;;;0.80;;
1382;SDS011;685;47.196;11.880;2023-09-19T11:55:21;2.67;;;1.10;;
1382;SDS011;685;47.196;11.880;2023-09-19T11:57:50;1.70;;;0.90;;
1382;SDS011;685;47.196;11.880;2023-09-19T12:00:17;3.37;;;0.93;;
1382;SDS011;685;47.196;11.880;2023-09-19T12:02:47;2.07;;;1.27;;
1382;SDS011;685;47.196;11.880;2023-09-19T12:05:16;2.03;;;0.90;;
1382;SDS011;685;47.196;11.880;2023-09-19T12:07:47;3.50;;;1.70;;
1382;SDS011;685;47.196;11.880;2023-09-19T12:10:14;3.03;;;1.37;;
1382;SDS011;685;47.196;11.880;2023-09-19T12:12:48;2.27;;;1.27;;
1382;SDS011;685;47.196;11.880;2023-09-19T12:15:22;2.00;;;1.10;;
1382;SDS011;685;47.196;11.880;2023-09-19T12:17:53;3.03;;;1.50;;
1382;SDS011;685;47.196;11.880;2023-09-19T12:20:21;2.90;;;1.20;;
1382;SDS011;685;47.196;11.880;2023-09-19T12:22:48;2.47;;;1.17;;
1382;SDS011;685;47.196;11.880;2023-09-19T12:25:16;3.10;;;1.10;;
1382;SDS011;685;47.196;11.880;2023-09-19T12:27:45;2.50;;;1.30;;
1382;SDS011;685;47.196;11.880;2023-09-19T12:30:14;2.17;;;0.90;;
1382;SDS011;685;47.196;11.880;2023-09-19T12:32:43;2.60;;;1.30;;
1382;SDS011;685;47.196;11.880;2023-09-19T12:35:10;2.63;;;1.10;;
1382;SDS011;685;47.196;11.880;2023-09-19T12:37:53;2.23;;;1.23;;
1382;SDS011;685;47.196;11.880;2023-09-19T12:40:22;3.13;;;1.50;;
1382;SDS011;685;47.196;11.880;2023-09-19T12:42:52;1.70;;;0.83;;
1382;SDS011;685;47.196;11.880;2023-09-19T12:45:21;3.80;;;1.47;;
1382;SDS011;685;47.196;11.880;2023-09-19T12:51:04;1.83;;;1.00;;
1382;SDS011;685;47.196;11.880;2023-09-19T12:53:36;1.80;;;0.80;;
1382;SDS011;685;47.196;11.880;2023-09-19T12:56:05;1.70;;;0.93;;
1382;SDS011;685;47.196;11.880;2023-09-19T12:58:35;3.40;;;1.20;;
1382;SDS011;685;47.196;11.880;2023-09-19T13:01:16;3.23;;;1.30;;
1382;SDS011;685;47.196;11.880;2023-09-19T13:03:44;3.50;;;1.17;;
1382;SDS011;685;47.196;11.880;2023-09-19T13:06:11;2.70;;;1.00;;
1382;SDS011;685;47.196;11.880;2023-09-19T13:08:42;2.63;;;1.20;;
1382;SDS011;685;47.196;11.880;2023-09-19T13:11:14;2.50;;;1.20;;
1382;SDS011;685;47.196;11.880;2023-09-19T13:13:44;3.03;;;1.40;;
1382;SDS011;685;47.196;11.880;2023-09-19T13:16:14;2.20;;;1.20;;
1382;SDS011;685;47.196;11.880;2023-09-19T13:18:46;3.73;;;1.67;;
1382;SDS011;685;47.196;11.880;2023-09-19T13:21:16;2.17;;;1.10;;
1382;SDS011;685;47.196;11.880;2023-09-19T13:23:50;2.57;;;1.00;;
1382;SDS011;685;47.196;11.880;2023-09-19T13:26:18;2.50;;;1.20;;
1382;SDS011;685;47.196;11.880;2023-09-19T13:28:45;3.90;;;1.43;;
1382;SDS011;685;47.196;11.880;2023-09-19T13:31:14;2.37;;;1.37;;
1382;SDS011;685;47.196;11.880;2023-09-19T13:33:43;2.20;;;1.10;;
1382;SDS011;685;47.196;11.880;2023-09-19T13:36:13;5.23;;;1.47;;
1382;SDS011;685;47.196;11.880;2023-09-19T13:38:40;3.63;;;1.70;;
1382;SDS011;685;47.196;11.880;2023-09-19T13:41:09;5.70;;;1.20;;
1382;SDS011;685;47.196;11.880;2023-09-19T13:43:36;2.57;;;1.10;;
1382;SDS011;685;47.196;11.880;2023-09-19T13:46:04;2.20;;;1.20;;
1382;SDS011;685;47.196;11.880;2023-09-19T13:48:32;2.43;;;1.30;;
1382;SDS011;685;47.196;11.880;2023-09-19T13:51:01;2.23;;;1.10;;
1382;SDS011;685;47.196;11.880;2023-09-19T13:53:31;1.93;;;1.03;;
1382;SDS011;685;47.196;11.880;2023-09-19T13:55:59;6.60;;;1.40;;
1382;SDS011;685;47.196;11.880;2023-09-19T13:58:26;1.87;;;1.20;;
1382;SDS011;685;47.196;11.880;2023-09-19T14:00:56;1.90;;;1.03;;
1382;SDS011;685;47.196;11.880;2023-09-19T14:03:25;2.00;;;0.97;;
1382;SDS011;685;47.196;11.880;2023-09-19T14:05:53;2.17;;;1.20;;
1382;SDS011;685;47.196;11.880;2023-09-19T14:08:20;2.00;;;1.10;;
1382;SDS011;685;47.196;11.880;2023-09-19T14:10:50;2.10;;;0.87;;
1382;SDS011;685;47.196;11.880;2023-09-19T14:13:18;2.43;;;1.30;;
1382;SDS011;685;47.196;11.880;2023-09-19T14:15:46;1.90;;;1.00;;
1382;SDS011;685;47.196;11.880;2023-09-19T14:18:14;2.20;;;1.40;;
1382;SDS011;685;47.196;11.880;2023-09-19T14:20:41;2.57;;;0.90;;
1382;SDS011;685;47.196;11.880;2023-09-19T14:23:09;2.47;;;1.07;;
1382;SDS011;685;47.196;11.880;2023-09-19T14:25:37;3.00;;;1.20;;
1382;SDS011;685;47.196;11.880;2023-09-19T14:28:05;2.70;;;1.30;;
1382;SDS011;685;47.196;11.880;2023-09-19T14:30:34;2.73;;;1.40;;
1382;SDS011;685;47.196;11.880;2023-09-19T14:33:02;2.23;;;1.20;;
1382;SDS011;685;47.196;11.880;2023-09-19T14:35:29;2.20;;;1.20;;
1382;SDS011;685;47.196;11.880;2023-09-19T14:37:57;1.90;;;1.00;;
1382;SDS011;685;47.196;11.880;2023-09-19T14:40:24;2.77;;;1.40;;
1382;SDS011;685;47.196;11.880;2023-09-19T14:42:52;2.73;;;1.20;;
1382;SDS011;685;47.196;11.880;2023-09-19T14:45:21;3.13;;;1.60;;
1382;SDS011;685;47.196;11.880;2023-09-19T14:47:50;2.10;;;1.10;;
1382;SDS011;685;47.196;11.880;2023-09-19T14:50:19;2.00;;;1.20;;
1382;SDS011;685;47.196;11.880;2023-09-19T14:52:47;2.10;;;1.13;;
1382;SDS011;685;47.196;11.880;2023-09-19T14:55:16;2.33;;;0.80;;
1382;SDS011;685;47.196;11.880;2023-09-19T14:57:48;2.40;;;1.47;;
1382;SDS011;685;47.196;11.880;2023-09-19T15:00:17;3.70;;;1.23;;
1382;SDS011;685;47.196;11.880;2023-09-19T15:02:47;1.80;;;0.90;;
1382;SDS011;685;47.196;11.880;2023-09-19T15:05:15;2.83;;;1.27;;
1382;SDS011;685;47.196;11.880;2023-09-19T15:07:42;3.10;;;1.17;;
1382;SDS011;685;47.196;11.880;2023-09-19T15:10:09;2.57;;;1.20;;
1382;SDS011;685;47.196;11.880;2023-09-19T15:12:38;1.90;;;1.10;;
1382;SDS011;685;47.196;11.880;2023-09-19T15:15:05;2.20;;;1.03;;
1382;SDS011;685;47.196;11.880;2023-09-19T15:17:33;3.70;;;1.27;;
1382;SDS011;685;47.196;11.880;2023-09-19T15:20:02;3.10;;;1.00;;
1382;SDS011;685;47.196;11.880;2023-09-19T15:22:31;1.80;;;0.80;;
1382;SDS011;685;47.196;11.880;2023-09-19T15:24:59;1.63;;;0.80;;
1382;SDS011;685;47.196;11.880;2023-09-19T15:27:27;2.00;;;1.00;;
1382;SDS011;685;47.196;11.880;2023-09-19T15:29:56;1.80;;;0.70;;
1382;SDS011;685;47.196;11.880;2023-09-19T15:32:24;2.20;;;0.90;;
1382;SDS011;685;47.196;11.880;2023-09-19T15:34:51;2.40;;;1.10;;
1382;SDS011;685;47.196;11.880;2023-09-19T15:37:19;2.70;;;1.20;;
1382;SDS011;685;47.196;11.880;2023-09-19T15:39:47;2.17;;;0.97;;
1382;SDS011;685;47.196;11.880;2023-09-19T15:42:14;2.77;;;1.33;;
1382;SDS011;685;47.196;11.880;2023-09-19T15:44:42;2.20;;;1.00;;
1382;SDS011;685;47.196;11.880;2023-09-19T15:47:11;2.17;;;1.20;;